Time;durP1;ratioP1;P1;durP2;ratioP2;P2;SDS_P1;SDS_P2;PMS_P1;PMS_P2;Temp;Humidity;BMP_temperature;BMP_pressure;BME280_temperature;BME280_humidity;BME280_pressure;Samples;Min_cycle;Max_cycle;Signal;HPM_P1;HPM_P2
2023/08/31 00:00:44;;;;;;;3.00;1.98;;;;;;;;;;5076467;28;20028;-39
2023/08/31 00:03:11;;;;;;;2.03;1.88;;;;;;;;;;5076904;28;20119;-39
2023/08/31 00:05:41;;;;;;;3.13;1.90;;;;;;;;;;5075842;28;20505;-40
2023/08/31 00:08:06;;;;;;;5.38;2.20;;;;;;;;;;5071768;28;20033;-39
2023/08/31 00:10:33;;;;;;;2.05;1.90;;;;;;;;;;5074236;28;20036;-40
2023/08/31 00:12:58;;;;;;;2.22;2.10;;;;;;;;;;5074979;28;20021;-42
2023/08/31 00:15:24;;;;;;;2.40;2.17;;;;;;;;;;5073966;28;20040;-39
2023/08/31 00:17:50;;;;;;;2.28;2.10;;;;;;;;;;5075193;28;20127;-40
2023/08/31 00:20:16;;;;;;;2.38;2.17;;;;;;;;;;5074485;28;20128;-40
2023/08/31 00:22:41;;;;;;;3.50;2.60;;;;;;;;;;5074848;28;20060;-39
2023/08/31 00:25:08;;;;;;;4.00;2.03;;;;;;;;;;5073536;28;20051;-39
2023/08/31 00:27:34;;;;;;;2.47;2.13;;;;;;;;;;5073624;28;20108;-39
2023/08/31 00:30:00;;;;;;;2.35;2.15;;;;;;;;;;5075393;28;20058;-39
2023/08/31 00:32:25;;;;;;;3.15;2.25;;;;;;;;;;5075316;28;20536;-40
2023/08/31 00:34:51;;;;;;;3.72;2.50;;;;;;;;;;5074646;28;20115;-39
2023/08/31 00:37:16;;;;;;;2.22;2.00;;;;;;;;;;5075304;28;20049;-40
2023/08/31 00:39:43;;;;;;;2.65;2.25;;;;;;;;;;5076020;28;20166;-40
2023/08/31 00:42:09;;;;;;;2.63;2.22;;;;;;;;;;5069873;28;20063;-40
2023/08/31 00:44:35;;;;;;;3.40;1.80;;;;;;;;;;5072464;28;20063;-40
2023/08/31 00:47:02;;;;;;;2.22;2.00;;;;;;;;;;5069625;28;20025;-41
2023/08/31 00:49:28;;;;;;;1.75;1.65;;;;;;;;;;5074193;28;20036;-40
2023/08/31 00:51:53;;;;;;;3.25;2.10;;;;;;;;;;5070918;28;20030;-40
2023/08/31 00:54:20;;;;;;;2.50;2.10;;;;;;;;;;5075707;28;20064;-39
2023/08/31 00:56:46;;;;;;;2.33;2.13;;;;;;;;;;5076738;28;20380;-39
2023/08/31 00:59:11;;;;;;;2.35;2.15;;;;;;;;;;5069836;28;20040;-40
2023/08/31 01:01:45;;;;;;;2.75;2.53;;;;;;;;;;5072697;28;20162;-41
2023/08/31 01:04:27;;;;;;;2.55;2.30;;;;;;;;;;5075250;28;20451;-39
2023/08/31 01:07:06;;;;;;;2.38;1.70;;;;;;;;;;5074086;28;20020;-40
2023/08/31 01:09:39;;;;;;;2.97;1.67;;;;;;;;;;5074580;28;20036;-39
2023/08/31 01:12:10;;;;;;;2.38;2.17;;;;;;;;;;5074276;28;20174;-39
2023/08/31 01:14:45;;;;;;;2.40;2.20;;;;;;;;;;5072550;28;20072;-39
2023/08/31 01:17:14;;;;;;;7.03;2.28;;;;;;;;;;5074241;28;20504;-39
2023/08/31 01:19:51;;;;;;;1.80;1.70;;;;;;;;;;5074561;28;20048;-41
2023/08/31 01:22:42;;;;;;;2.30;2.10;;;;;;;;;;5074202;28;20138;-39
2023/08/31 01:25:09;;;;;;;4.85;2.20;;;;;;;;;;5070943;28;20142;-41
2023/08/31 01:27:36;;;;;;;4.50;2.60;;;;;;;;;;5064866;28;20052;-42
2023/08/31 01:30:05;;;;;;;2.47;2.28;;;;;;;;;;5072885;28;20577;-39
2023/08/31 01:32:34;;;;;;;1.95;1.85;;;;;;;;;;5068467;28;20017;-40
2023/08/31 01:35:01;;;;;;;3.10;1.90;;;;;;;;;;5067715;28;20033;-41
2023/08/31 01:37:33;;;;;;;2.45;2.20;;;;;;;;;;5073266;28;20028;-39
2023/08/31 01:40:05;;;;;;;2.30;2.20;;;;;;;;;;5069142;28;20083;-40
2023/08/31 01:42:31;;;;;;;;;;;;;;;;;;5069957;28;20032;-42
2023/08/31 01:44:58;;;;;;;2.05;1.95;;;;;;;;;;5075565;28;19923;-42
2023/08/31 01:47:25;;;;;;;2.67;1.90;;;;;;;;;;5067990;28;20025;-39
2023/08/31 01:49:51;;;;;;;2.30;2.05;;;;;;;;;;5071471;28;20044;-40
2023/08/31 01:52:16;;;;;;;2.92;2.17;;;;;;;;;;5072419;28;20381;-40
2023/08/31 01:54:41;;;;;;;4.72;2.10;;;;;;;;;;5074352;28;20025;-40
2023/08/31 01:57:07;;;;;;;2.33;2.13;;;;;;;;;;5073761;28;20028;-40
2023/08/31 01:59:34;;;;;;;3.17;2.28;;;;;;;;;;5072370;28;20044;-40
2023/08/31 02:01:59;;;;;;;4.68;2.13;;;;;;;;;;5073008;28;20559;-39
2023/08/31 02:04:25;;;;;;;2.33;2.00;;;;;;;;;;5073230;28;20039;-39
2023/08/31 02:06:50;;;;;;;3.17;2.30;;;;;;;;;;5074971;28;20093;-41
2023/08/31 02:09:16;;;;;;;2.30;2.10;;;;;;;;;;5071321;28;20491;-42
2023/08/31 02:11:41;;;;;;;3.65;2.08;;;;;;;;;;5076847;28;20020;-39
2023/08/31 02:14:07;;;;;;;2.65;2.28;;;;;;;;;;5078127;28;20033;-41
2023/08/31 02:16:33;;;;;;;2.72;2.30;;;;;;;;;;5077424;28;20108;-40
2023/08/31 02:18:59;;;;;;;2.60;2.40;;;;;;;;;;5077473;28;20052;-42
2023/08/31 02:21:24;;;;;;;4.07;2.25;;;;;;;;;;5076769;28;20033;-40
2023/08/31 02:23:50;;;;;;;3.63;2.00;;;;;;;;;;5078403;28;20029;-41
2023/08/31 02:26:15;;;;;;;2.60;2.03;;;;;;;;;;5078345;28;20458;-40
2023/08/31 02:28:41;;;;;;;5.03;2.45;;;;;;;;;;5070576;28;20117;-40
2023/08/31 02:31:06;;;;;;;7.20;2.13;;;;;;;;;;5076470;28;20105;-42
2023/08/31 02:33:32;;;;;;;3.05;2.13;;;;;;;;;;5077520;28;20587;-43
2023/08/31 02:35:57;;;;;;;3.13;2.20;;;;;;;;;;5074136;28;20025;-42
2023/08/31 02:38:23;;;;;;;5.53;2.33;;;;;;;;;;5077269;28;20033;-39
2023/08/31 02:40:49;;;;;;;3.90;2.17;;;;;;;;;;5077751;28;20052;-42
2023/08/31 02:43:15;;;;;;;2.88;2.38;;;;;;;;;;5077015;28;20025;-39
2023/08/31 02:45:40;;;;;;;2.45;2.25;;;;;;;;;;5077762;28;20127;-40
2023/08/31 02:48:10;;;;;;;6.00;2.22;;;;;;;;;;5076576;28;20490;-40
2023/08/31 02:50:35;;;;;;;1.90;1.80;;;;;;;;;;5074628;28;20059;-42
2023/08/31 02:53:01;;;;;;;2.30;2.10;;;;;;;;;;5077277;28;20443;-41
2023/08/31 02:55:26;;;;;;;2.40;2.20;;;;;;;;;;5072647;28;20032;-40
2023/08/31 02:57:53;;;;;;;2.25;2.15;;;;;;;;;;5076371;28;20043;-42
2023/08/31 03:00:21;;;;;;;2.45;2.25;;;;;;;;;;5076905;28;20036;-40
2023/08/31 03:02:47;;;;;;;2.67;2.22;;;;;;;;;;5075924;28;20036;-40
2023/08/31 03:05:13;;;;;;;2.50;2.30;;;;;;;;;;5076044;28;20033;-40
2023/08/31 03:07:39;;;;;;;2.85;2.63;;;;;;;;;;5067390;28;20036;-40
2023/08/31 03:10:04;;;;;;;2.53;2.33;;;;;;;;;;5075375;28;20541;-40
2023/08/31 03:12:30;;;;;;;2.95;2.30;;;;;;;;;;5077651;28;20028;-41
2023/08/31 03:14:55;;;;;;;4.03;2.10;;;;;;;;;;5075906;28;20226;-39
2023/08/31 03:17:21;;;;;;;2.80;2.60;;;;;;;;;;5077579;28;20017;-39
2023/08/31 03:19:46;;;;;;;2.33;2.13;;;;;;;;;;5075698;28;20386;-39
2023/08/31 03:22:11;;;;;;;2.53;2.25;;;;;;;;;;5077436;28;20039;-39
2023/08/31 03:24:37;;;;;;;4.90;2.50;;;;;;;;;;5077087;28;20059;-42
2023/08/31 03:27:03;;;;;;;7.85;1.88;;;;;;;;;;5076543;28;20036;-41
2023/08/31 03:29:28;;;;;;;4.82;2.20;;;;;;;;;;5071988;28;20119;-40
2023/08/31 03:31:54;;;;;;;2.35;2.15;;;;;;;;;;5077873;28;20056;-39
2023/08/31 03:34:20;;;;;;;2.40;2.13;;;;;;;;;;5074537;28;20037;-41
2023/08/31 03:36:45;;;;;;;3.78;2.00;;;;;;;;;;5069213;28;20050;-41
2023/08/31 03:39:11;;;;;;;5.20;2.38;;;;;;;;;;5075089;28;20033;-39
2023/08/31 03:41:36;;;;;;;4.13;2.60;;;;;;;;;;5080059;28;20036;-40
2023/08/31 03:44:02;;;;;;;3.88;2.08;;;;;;;;;;5074237;28;20041;-40
2023/08/31 03:46:27;;;;;;;2.75;2.28;;;;;;;;;;5077101;28;20098;-39
2023/08/31 03:48:53;;;;;;;2.47;2.28;;;;;;;;;;5075207;28;20032;-40
2023/08/31 03:51:18;;;;;;;2.63;1.98;;;;;;;;;;5075886;28;20462;-39
2023/08/31 03:53:44;;;;;;;2.35;2.15;;;;;;;;;;5073881;28;20032;-39
2023/08/31 03:56:11;;;;;;;2.38;2.20;;;;;;;;;;5077412;28;20075;-42
2023/08/31 03:58:36;;;;;;;4.97;2.35;;;;;;;;;;5072851;28;20052;-39
2023/08/31 04:01:03;;;;;;;2.00;1.75;;;;;;;;;;5076113;28;20062;-40
2023/08/31 04:03:28;;;;;;;3.38;2.60;;;;;;;;;;5074740;28;20086;-40
2023/08/31 04:05:55;;;;;;;4.55;2.20;;;;;;;;;;5076448;28;20037;-40
2023/08/31 04:08:20;;;;;;;3.08;2.33;;;;;;;;;;5075720;28;20036;-39
2023/08/31 04:10:46;;;;;;;6.03;2.08;;;;;;;;;;5076353;28;20033;-40
2023/08/31 04:13:11;;;;;;;2.55;2.35;;;;;;;;;;5074881;28;20020;-40
2023/08/31 04:15:36;;;;;;;2.53;2.08;;;;;;;;;;5074914;28;20032;-40
2023/08/31 04:18:02;;;;;;;2.13;2.03;;;;;;;;;;5073245;28;20036;-41
2023/08/31 04:20:28;;;;;;;3.35;2.33;;;;;;;;;;5080346;28;20040;-39
2023/08/31 04:22:53;;;;;;;2.58;2.38;;;;;;;;;;5076593;28;20093;-40
2023/08/31 04:25:19;;;;;;;7.57;2.28;;;;;;;;;;5075663;28;20033;-40
2023/08/31 04:27:45;;;;;;;5.55;1.90;;;;;;;;;;5060387;28;20094;-41
2023/08/31 04:30:11;;;;;;;2.30;2.20;;;;;;;;;;5065988;28;20032;-40
2023/08/31 04:32:37;;;;;;;3.80;2.20;;;;;;;;;;5076064;28;20046;-40
2023/08/31 04:35:05;;;;;;;2.08;1.92;;;;;;;;;;5074854;28;20056;-40
2023/08/31 04:37:32;;;;;;;2.72;2.40;;;;;;;;;;5072221;28;20036;-40
2023/08/31 04:39:58;;;;;;;3.33;2.28;;;;;;;;;;5079170;28;20029;-43
2023/08/31 04:42:24;;;;;;;2.38;2.17;;;;;;;;;;5076314;28;20033;-40
2023/08/31 04:44:50;;;;;;;3.80;2.13;;;;;;;;;;5074514;28;20112;-40
2023/08/31 04:47:15;;;;;;;2.92;2.33;;;;;;;;;;5085008;28;20393;-40
2023/08/31 04:49:41;;;;;;;3.15;2.35;;;;;;;;;;5074759;28;20127;-40
2023/08/31 04:52:06;;;;;;;2.67;2.17;;;;;;;;;;5075339;28;20101;-41
2023/08/31 04:54:31;;;;;;;3.22;2.33;;;;;;;;;;5071259;28;20056;-40
2023/08/31 04:56:57;;;;;;;6.55;2.65;;;;;;;;;;5074499;28;20090;-41
2023/08/31 04:59:22;;;;;;;2.60;2.40;;;;;;;;;;5074499;28;20528;-42
2023/08/31 05:01:47;;;;;;;2.50;2.20;;;;;;;;;;5072465;28;23969;-40
2023/08/31 05:04:14;;;;;;;2.08;1.98;;;;;;;;;;5071454;28;20052;-40
2023/08/31 05:06:39;;;;;;;2.47;2.28;;;;;;;;;;5071218;28;20036;-40
2023/08/31 05:09:06;;;;;;;2.72;2.30;;;;;;;;;;5074830;28;20036;-40
2023/08/31 05:11:31;;;;;;;2.42;2.15;;;;;;;;;;5075203;28;20021;-41
2023/08/31 05:13:57;;;;;;;5.07;2.47;;;;;;;;;;5071515;28;20029;-41
2023/08/31 05:16:22;;;;;;;2.53;2.30;;;;;;;;;;5067656;28;20115;-40
2023/08/31 05:18:49;;;;;;;5.57;2.20;;;;;;;;;;5070798;28;20028;-39
2023/08/31 05:21:15;;;;;;;3.00;2.70;;;;;;;;;;5072795;28;20589;-40
2023/08/31 05:23:40;;;;;;;5.05;2.55;;;;;;;;;;5074436;28;20047;-41
2023/08/31 05:26:06;;;;;;;2.42;2.22;;;;;;;;;;5068670;28;20047;-43
2023/08/31 05:28:31;;;;;;;7.38;2.40;;;;;;;;;;5075127;28;20044;-40
2023/08/31 05:30:59;;;;;;;2.58;2.33;;;;;;;;;;5073762;28;20036;-40
2023/08/31 05:33:28;;;;;;;3.13;2.30;;;;;;;;;;5074995;28;20595;-41
2023/08/31 05:35:54;;;;;;;3.42;2.25;;;;;;;;;;5070356;28;20102;-41
2023/08/31 05:38:20;;;;;;;2.35;1.92;;;;;;;;;;5076236;28;20028;-40
2023/08/31 05:40:46;;;;;;;2.80;1.92;;;;;;;;;;5073403;28;20039;-39
2023/08/31 05:43:15;;;;;;;1.98;1.88;;;;;;;;;;5074524;28;20436;-40
2023/08/31 05:45:41;;;;;;;5.38;2.35;;;;;;;;;;5072255;28;20405;-39
2023/08/31 05:48:08;;;;;;;3.00;1.92;;;;;;;;;;5071876;28;20032;-41
2023/08/31 05:50:33;;;;;;;2.63;1.80;;;;;;;;;;5070914;28;20107;-40
2023/08/31 05:52:59;;;;;;;2.42;2.00;;;;;;;;;;5075254;28;20426;-39
2023/08/31 05:55:24;;;;;;;5.13;1.95;;;;;;;;;;5074796;28;20560;-41
2023/08/31 05:57:50;;;;;;;1.65;1.55;;;;;;;;;;5074819;28;20025;-40
2023/08/31 06:00:16;;;;;;;2.83;2.10;;;;;;;;;;5071954;28;20442;-40
2023/08/31 06:02:44;;;;;;;3.83;2.08;;;;;;;;;;5075085;28;20021;-40
2023/08/31 06:05:11;;;;;;;3.15;2.22;;;;;;;;;;5073810;28;20119;-40
2023/08/31 06:07:37;;;;;;;3.00;1.90;;;;;;;;;;5068831;28;20499;-40
2023/08/31 06:10:03;;;;;;;6.18;1.60;;;;;;;;;;5069188;28;20025;-40
2023/08/31 06:12:28;;;;;;;2.00;1.67;;;;;;;;;;5073138;28;20020;-40
2023/08/31 06:14:54;;;;;;;5.43;1.95;;;;;;;;;;5071613;28;20033;-40
2023/08/31 06:17:19;;;;;;;2.28;1.90;;;;;;;;;;5072298;28;20024;-42
2023/08/31 06:19:44;;;;;;;3.30;1.80;;;;;;;;;;5073030;28;20037;-40
2023/08/31 06:22:10;;;;;;;1.85;1.75;;;;;;;;;;5074687;28;20028;-41
2023/08/31 06:24:36;;;;;;;3.17;1.83;;;;;;;;;;5077034;28;20033;-40
2023/08/31 06:27:02;;;;;;;2.60;2.00;;;;;;;;;;5079836;28;20039;-40
2023/08/31 06:29:27;;;;;;;4.13;2.25;;;;;;;;;;5074440;28;20658;-42
2023/08/31 06:31:53;;;;;;;2.03;1.92;;;;;;;;;;5072715;28;20031;-41
2023/08/31 06:34:18;;;;;;;3.08;2.00;;;;;;;;;;5071174;28;20045;-42
2023/08/31 06:36:44;;;;;;;4.07;2.13;;;;;;;;;;5071385;28;20432;-39
2023/08/31 06:39:09;;;;;;;3.50;2.17;;;;;;;;;;5074444;28;20398;-39
2023/08/31 06:41:34;;;;;;;2.67;2.10;;;;;;;;;;5071869;28;20042;-40
2023/08/31 06:44:01;;;;;;;2.30;1.95;;;;;;;;;;5073910;28;20036;-39
2023/08/31 06:46:27;;;;;;;1.90;1.80;;;;;;;;;;5065530;28;20025;-40
2023/08/31 06:48:53;;;;;;;4.03;1.90;;;;;;;;;;5072747;28;20427;-38
2023/08/31 06:51:18;;;;;;;3.00;2.00;;;;;;;;;;5077182;28;20054;-39
2023/08/31 06:53:44;;;;;;;4.47;2.38;;;;;;;;;;5078981;28;20528;-38
2023/08/31 06:56:09;;;;;;;3.13;2.00;;;;;;;;;;5079595;28;20024;-44
2023/08/31 06:58:35;;;;;;;1.80;1.70;;;;;;;;;;5077460;28;20051;-39
2023/08/31 07:01:01;;;;;;;3.90;2.08;;;;;;;;;;5069681;28;20501;-40
2023/08/31 07:03:26;;;;;;;2.55;1.85;;;;;;;;;;5072310;28;20021;-38
2023/08/31 07:05:52;;;;;;;2.63;1.70;;;;;;;;;;5074679;28;20040;-40
2023/08/31 07:08:17;;;;;;;2.00;1.90;;;;;;;;;;5075591;28;20397;-39
2023/08/31 07:10:43;;;;;;;2.17;1.98;;;;;;;;;;5076332;28;20041;-39
2023/08/31 07:13:08;;;;;;;1.83;1.73;;;;;;;;;;5077349;28;20028;-39
2023/08/31 07:15:33;;;;;;;2.40;2.05;;;;;;;;;;5076184;28;20040;-39
2023/08/31 07:17:59;;;;;;;3.72;2.20;;;;;;;;;;5077549;28;20032;-40
2023/08/31 07:20:25;;;;;;;5.30;2.10;;;;;;;;;;5073548;28;20043;-39
2023/08/31 07:22:51;;;;;;;1.88;1.77;;;;;;;;;;5070352;28;20036;-39
2023/08/31 07:25:16;;;;;;;7.30;1.75;;;;;;;;;;5071931;28;20045;-42
2023/08/31 07:27:42;;;;;;;2.00;1.80;;;;;;;;;;5068863;28;20031;-41
2023/08/31 07:30:07;;;;;;;2.63;1.88;;;;;;;;;;5070060;28;20066;-40
2023/08/31 07:32:33;;;;;;;2.22;1.77;;;;;;;;;;5075213;28;20036;-40
2023/08/31 07:34:58;;;;;;;5.20;1.88;;;;;;;;;;5078053;28;20090;-45
2023/08/31 07:37:24;;;;;;;1.80;1.70;;;;;;;;;;5075854;28;20115;-40
2023/08/31 07:39:49;;;;;;;3.05;2.30;;;;;;;;;;5074239;28;20659;-43
2023/08/31 07:42:14;;;;;;;4.18;2.15;;;;;;;;;;5075717;28;20044;-40
2023/08/31 07:44:41;;;;;;;5.28;2.28;;;;;;;;;;5076739;28;20037;-43
2023/08/31 07:47:07;;;;;;;3.15;2.17;;;;;;;;;;5077751;28;20058;-43
2023/08/31 07:49:33;;;;;;;3.30;2.00;;;;;;;;;;5073210;28;20436;-40
2023/08/31 07:51:58;;;;;;;2.55;2.03;;;;;;;;;;5072350;28;20027;-41
2023/08/31 07:54:23;;;;;;;4.60;1.90;;;;;;;;;;5073781;28;20170;-43
2023/08/31 07:56:49;;;;;;;1.88;1.77;;;;;;;;;;5076761;28;20037;-40
2023/08/31 07:59:17;;;;;;;2.03;1.80;;;;;;;;;;5073732;28;20445;-42
2023/08/31 08:01:42;;;;;;;3.38;1.70;;;;;;;;;;5067966;28;20032;-41
2023/08/31 08:04:08;;;;;;;5.28;2.00;;;;;;;;;;5069766;28;20055;-41
2023/08/31 08:06:33;;;;;;;7.68;1.55;;;;;;;;;;5072689;28;20031;-40
2023/08/31 08:08:59;;;;;;;2.03;1.75;;;;;;;;;;5072437;28;20107;-42
2023/08/31 08:11:24;;;;;;;3.47;1.58;;;;;;;;;;5070923;28;20024;-41
2023/08/31 08:13:49;;;;;;;1.85;1.75;;;;;;;;;;5074311;28;20040;-44
2023/08/31 08:16:15;;;;;;;3.55;2.05;;;;;;;;;;5073982;28;20025;-42
2023/08/31 08:18:41;;;;;;;2.53;1.77;;;;;;;;;;5068370;28;20201;-40
2023/08/31 08:21:06;;;;;;;2.50;1.65;;;;;;;;;;5067612;28;20090;-42
2023/08/31 08:23:32;;;;;;;1.90;1.63;;;;;;;;;;5076442;28;20058;-40
2023/08/31 08:26:00;;;;;;;1.90;1.80;;;;;;;;;;5069528;28;20037;-40
2023/08/31 08:28:26;;;;;;;6.15;1.80;;;;;;;;;;5075368;28;20120;-41
2023/08/31 08:30:51;;;;;;;1.55;1.45;;;;;;;;;;5073042;28;20683;-41
2023/08/31 08:33:17;;;;;;;2.10;1.90;;;;;;;;;;5068208;28;20107;-43
2023/08/31 08:35:42;;;;;;;2.58;1.75;;;;;;;;;;5074031;28;20048;-43
2023/08/31 08:38:08;;;;;;;3.55;1.70;;;;;;;;;;5073278;28;20039;-41
2023/08/31 08:40:34;;;;;;;1.85;1.70;;;;;;;;;;5068992;28;20033;-40
2023/08/31 08:43:01;;;;;;;2.22;1.70;;;;;;;;;;5071473;28;20063;-40
2023/08/31 08:45:36;;;;;;;1.63;1.52;;;;;;;;;;5070873;28;20398;-42
2023/08/31 08:48:03;;;;;;;2.95;1.65;;;;;;;;;;5073876;28;20020;-42
2023/08/31 08:50:31;;;;;;;1.83;1.67;;;;;;;;;;5068367;28;20166;-42
2023/08/31 08:52:57;;;;;;;1.58;1.48;;;;;;;;;;5068712;28;20028;-42
2023/08/31 08:55:23;;;;;;;1.50;1.40;;;;;;;;;;5072102;28;20182;-45
2023/08/31 08:57:48;;;;;;;2.80;1.63;;;;;;;;;;5075191;28;20029;-42
2023/08/31 09:00:15;;;;;;;1.60;1.50;;;;;;;;;;5075842;28;20066;-45
2023/08/31 09:02:41;;;;;;;2.25;1.70;;;;;;;;;;5075119;28;20028;-42
2023/08/31 09:05:07;;;;;;;1.70;1.60;;;;;;;;;;5069545;28;20486;-42
2023/08/31 09:07:37;;;;;;;2.10;1.90;;;;;;;;;;5074940;28;20056;-40
2023/08/31 09:10:04;;;;;;;2.17;1.98;;;;;;;;;;5071607;28;20476;-44
2023/08/31 09:12:29;;;;;;;4.68;1.90;;;;;;;;;;5076076;28;20024;-43
2023/08/31 09:15:04;;;;;;;3.92;1.70;;;;;;;;;;5068767;28;20452;-43
2023/08/31 09:17:41;;;;;;;3.03;1.73;;;;;;;;;;5075819;28;20052;-41
2023/08/31 09:20:08;;;;;;;2.05;1.63;;;;;;;;;;5068627;28;20440;-46
2023/08/31 09:22:34;;;;;;;2.60;2.00;;;;;;;;;;5066898;28;20029;-46
2023/08/31 09:24:59;;;;;;;4.90;2.10;;;;;;;;;;5074286;28;20040;-43
2023/08/31 09:27:25;;;;;;;2.42;2.00;;;;;;;;;;5074696;28;20515;-41
2023/08/31 09:29:55;;;;;;;4.97;1.85;;;;;;;;;;5073890;28;20044;-39
2023/08/31 09:32:20;;;;;;;2.10;1.90;;;;;;;;;;5074777;28;20074;-39
2023/08/31 09:34:47;;;;;;;2.47;2.00;;;;;;;;;;5075415;28;20052;-44
2023/08/31 09:37:12;;;;;;;3.00;1.67;;;;;;;;;;5072752;28;20067;-39
2023/08/31 09:39:39;;;;;;;2.53;2.00;;;;;;;;;;5071022;28;20032;-43
2023/08/31 09:42:04;;;;;;;3.17;2.13;;;;;;;;;;5070498;28;20020;-42
2023/08/31 09:44:30;;;;;;;4.07;1.80;;;;;;;;;;5068104;28;20041;-44
2023/08/31 09:46:57;;;;;;;3.17;1.92;;;;;;;;;;5070914;28;20036;-40
2023/08/31 09:49:24;;;;;;;2.67;1.80;;;;;;;;;;5073741;28;20120;-39
2023/08/31 09:51:50;;;;;;;2.03;1.80;;;;;;;;;;5074459;28;20028;-40
2023/08/31 09:54:18;;;;;;;2.55;1.75;;;;;;;;;;5071741;28;20037;-44
2023/08/31 09:56:45;;;;;;;2.10;1.90;;;;;;;;;;5075314;28;20242;-42
2023/08/31 09:59:11;;;;;;;3.10;1.67;;;;;;;;;;5069266;28;20033;-42
2023/08/31 10:01:38;;;;;;;2.90;1.98;;;;;;;;;;5078721;28;20031;-41
2023/08/31 10:04:05;;;;;;;2.80;1.63;;;;;;;;;;5073405;28;20040;-43
2023/08/31 10:06:32;;;;;;;4.93;1.70;;;;;;;;;;5070982;28;20024;-43
2023/08/31 10:08:58;;;;;;;4.65;1.75;;;;;;;;;;5073550;28;20474;-42
2023/08/31 10:11:25;;;;;;;2.10;1.90;;;;;;;;;;5068734;28;20078;-42
2023/08/31 10:13:51;;;;;;;3.33;2.00;;;;;;;;;;5059139;28;20029;-41
2023/08/31 10:16:19;;;;;;;5.20;1.67;;;;;;;;;;5065449;28;20109;-39
2023/08/31 10:18:44;;;;;;;7.13;2.05;;;;;;;;;;5075004;28;20085;-42
2023/08/31 10:21:10;;;;;;;3.00;1.85;;;;;;;;;;5079979;28;20123;-44
2023/08/31 10:23:35;;;;;;;3.63;1.40;;;;;;;;;;5077189;28;20051;-43
2023/08/31 10:26:03;;;;;;;2.10;1.60;;;;;;;;;;5083486;28;20039;-39
2023/08/31 10:28:29;;;;;;;1.92;1.60;;;;;;;;;;5078565;28;20086;-42
2023/08/31 10:31:15;;;;;;;2.30;1.85;;;;;;;;;;5071182;28;20070;-46
2023/08/31 10:34:03;;;;;;;2.03;1.70;;;;;;;;;;5074192;28;20024;-45
2023/08/31 10:36:35;;;;;;;6.82;1.70;;;;;;;;;;5073857;28;20393;-42
2023/08/31 10:39:04;;;;;;;2.60;2.08;;;;;;;;;;5075691;28;20032;-42
2023/08/31 10:41:35;;;;;;;2.85;1.65;;;;;;;;;;5074756;28;20493;-45
2023/08/31 10:44:02;;;;;;;2.60;1.95;;;;;;;;;;5072264;28;20032;-45
2023/08/31 10:46:35;;;;;;;1.70;1.58;;;;;;;;;;5067322;28;20027;-44
2023/08/31 10:49:09;;;;;;;1.80;1.67;;;;;;;;;;5071931;28;20021;-42
2023/08/31 10:51:36;;;;;;;2.55;1.67;;;;;;;;;;5071766;28;20056;-41
2023/08/31 10:54:15;;;;;;;3.63;1.80;;;;;;;;;;5071567;28;20043;-41
2023/08/31 10:57:07;;;;;;;1.70;1.60;;;;;;;;;;5068105;28;20098;-41
2023/08/31 10:59:52;;;;;;;2.10;1.90;;;;;;;;;;5065421;28;20044;-45
2023/08/31 11:02:37;;;;;;;2.90;1.70;;;;;;;;;;5072338;28;20112;-40
2023/08/31 11:05:15;;;;;;;3.75;1.58;;;;;;;;;;5075183;28;20033;-43
2023/08/31 11:07:42;;;;;;;1.92;1.73;;;;;;;;;;5075632;28;20534;-40
2023/08/31 11:10:10;;;;;;;1.85;1.70;;;;;;;;;;5071753;28;20033;-42
2023/08/31 11:12:36;;;;;;;1.60;1.50;;;;;;;;;;5074402;28;20020;-43
2023/08/31 11:15:03;;;;;;;2.85;1.60;;;;;;;;;;5071411;28;20922;-42
2023/08/31 11:17:29;;;;;;;1.73;1.63;;;;;;;;;;5073390;28;20031;-44
2023/08/31 11:19:56;;;;;;;6.22;1.60;;;;;;;;;;5071004;28;20041;-43
2023/08/31 11:22:22;;;;;;;1.80;1.58;;;;;;;;;;5073708;28;20020;-41
2023/08/31 11:24:47;;;;;;;1.40;1.30;;;;;;;;;;5053297;28;20553;-42
2023/08/31 11:27:13;;;;;;;1.40;1.30;;;;;;;;;;5069444;28;20028;-45
2023/08/31 11:29:44;;;;;;;2.15;1.40;;;;;;;;;;5070569;28;20039;-43
2023/08/31 11:32:10;;;;;;;4.15;1.30;;;;;;;;;;5073195;28;20635;-42
2023/08/31 11:34:41;;;;;;;2.17;1.63;;;;;;;;;;5072620;28;20048;-41
2023/08/31 11:37:07;;;;;;;1.50;1.40;;;;;;;;;;5079626;28;20058;-41
2023/08/31 11:39:32;;;;;;;3.13;1.48;;;;;;;;;;5075804;28;20044;-41
2023/08/31 11:41:58;;;;;;;4.07;1.60;;;;;;;;;;5077788;28;20081;-44
2023/08/31 11:44:23;;;;;;;2.00;1.40;;;;;;;;;;5074500;28;20127;-41
2023/08/31 11:46:50;;;;;;;4.20;1.50;;;;;;;;;;5075160;28;20032;-39
2023/08/31 11:49:19;;;;;;;1.67;1.40;;;;;;;;;;5074212;28;20048;-41
2023/08/31 11:51:45;;;;;;;2.00;1.60;;;;;;;;;;5075202;28;20028;-41
2023/08/31 11:54:11;;;;;;;3.55;1.50;;;;;;;;;;5076538;28;20039;-45
2023/08/31 11:56:40;;;;;;;3.33;1.60;;;;;;;;;;5075120;28;20029;-46
2023/08/31 11:59:12;;;;;;;2.65;1.60;;;;;;;;;;5067625;28;20052;-43
2023/08/31 12:01:42;;;;;;;2.47;1.30;;;;;;;;;;5068638;28;20024;-42
2023/08/31 12:04:13;;;;;;;2.40;1.30;;;;;;;;;;5073165;28;20032;-41
2023/08/31 12:06:39;;;;;;;4.10;1.30;;;;;;;;;;5070996;28;20082;-46
2023/08/31 12:09:08;;;;;;;2.05;1.35;;;;;;;;;;5076207;28;20040;-41
2023/08/31 12:11:34;;;;;;;1.58;1.35;;;;;;;;;;5076612;28;20484;-40
2023/08/31 12:14:04;;;;;;;2.90;1.73;;;;;;;;;;5075214;28;20028;-43
2023/08/31 12:16:36;;;;;;;1.60;1.50;;;;;;;;;;5075142;28;20048;-40
2023/08/31 12:19:04;;;;;;;3.47;1.55;;;;;;;;;;5069953;28;20028;-42
2023/08/31 12:21:33;;;;;;;1.40;1.27;;;;;;;;;;5072028;28;20048;-40
2023/08/31 12:23:59;;;;;;;3.00;1.50;;;;;;;;;;5070200;28;20086;-43
2023/08/31 12:26:25;;;;;;;1.58;1.48;;;;;;;;;;5075681;28;20469;-41
2023/08/31 12:28:51;;;;;;;1.77;1.67;;;;;;;;;;5083537;28;20059;-41
2023/08/31 12:31:16;;;;;;;1.98;1.52;;;;;;;;;;5076035;28;20016;-43
2023/08/31 12:33:41;;;;;;;2.83;1.70;;;;;;;;;;5074965;28;20535;-43
2023/08/31 12:36:07;;;;;;;1.65;1.50;;;;;;;;;;5069048;28;20453;-47
2023/08/31 12:38:33;;;;;;;1.63;1.52;;;;;;;;;;5073908;28;20036;-42
2023/08/31 12:40:58;;;;;;;2.42;1.55;;;;;;;;;;5075455;28;20033;-42
2023/08/31 12:43:24;;;;;;;9.45;1.70;;;;;;;;;;5076347;28;20036;-41
2023/08/31 12:45:49;;;;;;;2.13;1.30;;;;;;;;;;5077052;28;20410;-42
2023/08/31 12:48:15;;;;;;;2.92;1.80;;;;;;;;;;5073221;28;20473;-47
2023/08/31 12:50:40;;;;;;;3.25;1.85;;;;;;;;;;5074628;28;20513;-41
2023/08/31 12:53:05;;;;;;;6.03;1.75;;;;;;;;;;5076367;28;20026;-41
2023/08/31 12:55:31;;;;;;;6.47;1.60;;;;;;;;;;5074558;28;20043;-45
2023/08/31 12:57:56;;;;;;;2.03;1.60;;;;;;;;;;5075762;28;20059;-42
2023/08/31 13:00:22;;;;;;;1.70;1.60;;;;;;;;;;5075468;28;20093;-43
2023/08/31 13:02:50;;;;;;;1.77;1.67;;;;;;;;;;5073386;28;20041;-45
2023/08/31 13:05:16;;;;;;;2.90;1.50;;;;;;;;;;5074718;28;20512;-43
2023/08/31 13:07:41;;;;;;;2.45;1.50;;;;;;;;;;5075922;28;20035;-43
2023/08/31 13:10:07;;;;;;;1.50;1.40;;;;;;;;;;5070042;28;20047;-43
2023/08/31 13:12:33;;;;;;;1.92;1.50;;;;;;;;;;5064269;28;20021;-44
2023/08/31 13:15:00;;;;;;;1.58;1.48;;;;;;;;;;5074831;28;20222;-41
2023/08/31 13:17:29;;;;;;;1.77;1.55;;;;;;;;;;5072053;28;20028;-43
2023/08/31 13:19:57;;;;;;;1.75;1.65;;;;;;;;;;5068905;28;20135;-41
2023/08/31 13:22:22;;;;;;;1.50;1.40;;;;;;;;;;5080635;28;20032;-42
2023/08/31 13:24:48;;;;;;;2.30;1.60;;;;;;;;;;5075417;28;20103;-40
2023/08/31 13:27:13;;;;;;;4.95;1.45;;;;;;;;;;5073535;28;20032;-44
2023/08/31 13:29:39;;;;;;;5.13;1.30;;;;;;;;;;5071917;28;20457;-43
2023/08/31 13:32:05;;;;;;;4.57;1.50;;;;;;;;;;5075959;28;20645;-40
2023/08/31 13:34:30;;;;;;;2.45;1.63;;;;;;;;;;5072768;28;20040;-40
2023/08/31 13:36:56;;;;;;;3.55;1.90;;;;;;;;;;5073468;28;20032;-46
2023/08/31 13:39:23;;;;;;;1.60;1.50;;;;;;;;;;5071702;28;20036;-42
2023/08/31 13:41:50;;;;;;;1.83;1.73;;;;;;;;;;5071854;28;20103;-43
2023/08/31 13:44:16;;;;;;;1.60;1.50;;;;;;;;;;5073481;28;20092;-41
2023/08/31 13:46:41;;;;;;;2.22;1.55;;;;;;;;;;5077107;28;20674;-42
2023/08/31 13:49:06;;;;;;;2.08;1.73;;;;;;;;;;5073874;28;20033;-42
2023/08/31 13:51:32;;;;;;;1.85;1.75;;;;;;;;;;5073303;28;20058;-40
2023/08/31 13:53:57;;;;;;;3.42;1.58;;;;;;;;;;5073623;28;20103;-41
2023/08/31 13:56:23;;;;;;;1.60;1.50;;;;;;;;;;5074424;28;20028;-42
2023/08/31 13:58:48;;;;;;;1.60;1.50;;;;;;;;;;5074328;28;20048;-40
2023/08/31 14:01:14;;;;;;;1.83;1.65;;;;;;;;;;5074185;28;20032;-43
2023/08/31 14:03:39;;;;;;;1.42;1.33;;;;;;;;;;5084990;28;20033;-47
2023/08/31 14:06:05;;;;;;;1.70;1.60;;;;;;;;;;5075817;28;20040;-42
2023/08/31 14:08:30;;;;;;;3.13;1.40;;;;;;;;;;5076931;28;20449;-43
2023/08/31 14:10:55;;;;;;;4.35;1.60;;;;;;;;;;5078403;28;20125;-42
2023/08/31 14:13:21;;;;;;;4.55;1.65;;;;;;;;;;5075482;28;20025;-44
2023/08/31 14:15:47;;;;;;;2.40;1.10;;;;;;;;;;5071031;28;20071;-43
2023/08/31 14:18:13;;;;;;;1.80;1.33;;;;;;;;;;5077936;28;20079;-43
2023/08/31 14:20:39;;;;;;;2.17;1.50;;;;;;;;;;5077508;28;20131;-45
2023/08/31 14:23:05;;;;;;;4.45;1.55;;;;;;;;;;5079087;28;20020;-42
2023/08/31 14:25:38;;;;;;;8.45;1.55;;;;;;;;;;5076668;28;20563;-43
2023/08/31 14:28:04;;;;;;;2.42;1.60;;;;;;;;;;5077445;28;20017;-42
2023/08/31 14:30:30;;;;;;;6.88;1.50;;;;;;;;;;5074911;28;20116;-45
2023/08/31 14:32:55;;;;;;;3.45;1.52;;;;;;;;;;5076959;28;20063;-41
2023/08/31 14:35:21;;;;;;;6.05;1.52;;;;;;;;;;5077098;28;20039;-44
2023/08/31 14:37:46;;;;;;;5.00;1.42;;;;;;;;;;5076107;28;20367;-41
2023/08/31 14:40:12;;;;;;;5.13;1.50;;;;;;;;;;5076786;28;20685;-46